createdAt,value
2022-11-20T00:02:26.999Z,3.67
2022-11-20T00:05:03.840Z,3.80
2022-11-20T00:07:31.845Z,3.80
2022-11-20T00:09:59.490Z,3.67
2022-11-20T00:12:33.919Z,3.53
2022-11-20T00:15:01.426Z,3.70
2022-11-20T00:17:31.232Z,3.70
2022-11-20T00:20:04.842Z,3.90
2022-11-20T00:22:32.200Z,3.23
2022-11-20T00:24:59.592Z,3.50
2022-11-20T00:27:33.806Z,3.70
2022-11-20T00:30:11.116Z,4.00
2022-11-20T00:32:48.804Z,3.70
2022-11-20T00:35:18.191Z,3.73
2022-11-20T00:37:45.630Z,3.30
2022-11-20T00:40:21.118Z,4.37
2022-11-20T00:42:48.591Z,4.60
2022-11-20T00:45:16.049Z,3.53
2022-11-20T00:47:50.177Z,3.57
2022-11-20T00:50:24.402Z,3.73
2022-11-20T00:52:58.171Z,3.23
2022-11-20T00:55:25.572Z,3.63
2022-11-20T00:57:53.000Z,3.50
2022-11-20T01:00:27.138Z,3.40
2022-11-20T01:02:56.580Z,3.20
2022-11-20T01:05:23.997Z,3.30
2022-11-20T01:07:58.120Z,3.50
2022-11-20T01:10:25.522Z,3.40
2022-11-20T01:13:31.144Z,3.10
2022-11-20T01:16:23.789Z,2.80
2022-11-20T01:18:59.166Z,3.07
2022-11-20T01:21:29.142Z,3.23
2022-11-20T01:23:57.676Z,3.20
2022-11-20T01:26:35.143Z,3.10
2022-11-20T01:29:03.136Z,3.30
2022-11-20T01:31:43.140Z,3.27
2022-11-20T01:34:16.894Z,3.53
2022-11-20T01:36:51.242Z,2.90
2022-11-20T01:39:25.318Z,3.20
2022-11-20T01:42:20.141Z,3.20
2022-11-20T01:44:54.079Z,3.30
2022-11-20T01:47:48.213Z,3.80
2022-11-20T01:50:21.522Z,3.60
2022-11-20T01:53:08.383Z,3.90
2022-11-20T01:55:47.233Z,4.27
2022-11-20T01:58:21.581Z,4.33
2022-11-20T02:00:49.074Z,3.70
2022-11-20T02:03:20.806Z,4.40
2022-11-20T02:06:12.362Z,4.20
2022-11-20T02:08:40.361Z,4.20
2022-11-20T02:11:28.414Z,4.70
2022-11-20T02:13:56.841Z,4.27
2022-11-20T02:16:27.071Z,4.53
2022-11-20T02:19:04.372Z,3.80
2022-11-20T02:22:00.332Z,5.30
2022-11-20T02:24:34.364Z,5.00
2022-11-20T02:27:10.422Z,4.37
2022-11-20T02:30:08.374Z,4.77
2022-11-20T02:32:38.517Z,4.70
2022-11-20T02:35:17.387Z,4.70
2022-11-20T02:37:45.827Z,5.23
2022-11-20T02:40:13.334Z,4.50
2022-11-20T02:42:47.403Z,4.67
2022-11-20T02:45:16.966Z,4.63
2022-11-20T02:47:44.326Z,4.90
2022-11-20T02:50:18.892Z,4.83
2022-11-20T02:52:46.381Z,4.73
2022-11-20T02:55:14.415Z,4.77
2022-11-20T02:57:48.881Z,5.40
2022-11-20T03:00:16.678Z,4.27
2022-11-20T03:02:44.136Z,5.07
2022-11-20T03:05:17.948Z,4.50
2022-11-20T03:07:45.845Z,4.17
2022-11-20T03:10:13.384Z,4.27
2022-11-20T03:12:47.931Z,3.90
2022-11-20T03:15:15.581Z,3.83
2022-11-20T03:17:43.006Z,3.77
2022-11-20T03:20:17.887Z,3.30
2022-11-20T03:22:47.152Z,3.43
2022-11-20T03:25:14.575Z,3.57
2022-11-20T03:27:48.220Z,3.30
2022-11-20T03:30:16.437Z,3.07
2022-11-20T03:32:44.029Z,3.57
2022-11-20T03:35:18.217Z,3.13
2022-11-20T03:37:47.093Z,3.60
2022-11-20T03:40:14.698Z,2.77
2022-11-20T03:42:55.266Z,3.10
2022-11-20T03:45:22.874Z,3.00
2022-11-20T03:47:50.365Z,3.00
2022-11-20T03:50:24.289Z,2.73
2022-11-20T03:52:51.675Z,2.60
2022-11-20T03:55:19.112Z,2.80
2022-11-20T03:57:53.219Z,2.50
2022-11-20T04:00:20.648Z,2.50
2022-11-20T04:02:48.111Z,2.60
2022-11-20T04:05:22.261Z,2.40
2022-11-20T04:07:49.690Z,2.40
2022-11-20T04:10:20.324Z,2.60
2022-11-20T04:12:54.287Z,2.50
2022-11-20T04:15:21.681Z,2.23
2022-11-20T04:17:49.122Z,2.10
2022-11-20T04:20:23.438Z,2.30
2022-11-20T04:22:53.849Z,2.13
2022-11-20T04:25:22.216Z,1.97
2022-11-20T04:27:56.249Z,1.93
2022-11-20T04:30:23.897Z,2.30
2022-11-20T04:32:51.374Z,2.30
2022-11-20T04:35:25.486Z,1.80
2022-11-20T04:37:53.447Z,2.30
2022-11-20T04:40:20.927Z,2.40
2022-11-20T04:42:55.226Z,2.20
2022-11-20T04:45:25.925Z,2.40
2022-11-20T04:48:03.256Z,2.10
2022-11-20T04:50:30.747Z,1.83
2022-11-20T04:52:58.142Z,2.50
2022-11-20T04:55:32.195Z,1.83
2022-11-20T04:57:59.911Z,2.10
2022-11-20T05:00:27.685Z,1.97
2022-11-20T05:03:02.174Z,2.30
2022-11-20T05:05:29.613Z,2.20
2022-11-20T05:08:00.469Z,2.00
2022-11-20T05:10:35.284Z,2.00
2022-11-20T05:13:09.338Z,1.73
2022-11-20T05:15:43.210Z,1.73
2022-11-20T05:18:10.557Z,1.30
2022-11-20T05:20:37.909Z,1.73
2022-11-20T05:23:12.192Z,1.60
2022-11-20T05:25:39.555Z,1.60
2022-11-20T05:28:07.082Z,1.80
2022-11-20T05:30:41.257Z,1.83
2022-11-20T05:33:09.819Z,1.60
2022-11-20T05:35:37.349Z,1.60
2022-11-20T05:38:12.274Z,1.20
2022-11-20T05:40:39.818Z,1.40
2022-11-20T05:43:07.201Z,1.57
2022-11-20T05:45:41.224Z,1.30
2022-11-20T05:48:08.606Z,1.30
2022-11-20T05:50:36.354Z,1.13
2022-11-20T05:53:10.236Z,1.30
2022-11-20T05:55:37.690Z,1.17
2022-11-20T05:58:05.241Z,1.40
2022-11-20T06:00:40.278Z,1.40
2022-11-20T06:03:07.835Z,1.30
2022-11-20T06:05:35.607Z,1.00
2022-11-20T06:08:09.328Z,1.50
2022-11-20T06:10:36.984Z,1.20
2022-11-20T06:13:20.265Z,1.20
2022-11-20T06:15:52.061Z,1.10
2022-11-20T06:18:27.304Z,1.30
2022-11-20T06:21:02.745Z,1.17
2022-11-20T06:23:39.281Z,1.13
2022-11-20T06:26:12.920Z,1.10
2022-11-20T06:28:50.623Z,1.30
2022-11-20T06:31:20.453Z,1.10
2022-11-20T06:33:48.437Z,1.20
2022-11-20T06:36:26.697Z,1.47
2022-11-20T06:38:54.317Z,1.13
2022-11-20T06:41:23.273Z,1.40
2022-11-20T06:43:57.609Z,1.20
2022-11-20T06:46:25.392Z,1.10
2022-11-20T06:48:52.896Z,1.30
2022-11-20T06:51:26.736Z,1.20
2022-11-20T06:53:54.834Z,1.67
2022-11-20T06:56:22.371Z,1.40
2022-11-20T06:58:56.661Z,1.30
2022-11-20T07:01:24.297Z,1.40
2022-11-20T07:03:55.031Z,1.40
2022-11-20T07:06:28.704Z,1.53
2022-11-20T07:08:56.146Z,1.33
2022-11-20T07:11:43.738Z,1.27
2022-11-20T07:14:12.612Z,1.90
2022-11-20T07:16:40.471Z,1.50
2022-11-20T07:19:15.711Z,1.30
2022-11-20T07:21:43.520Z,1.33
2022-11-20T07:24:13.324Z,1.10
2022-11-20T07:26:47.770Z,1.27
2022-11-20T07:29:15.527Z,1.17
2022-11-20T07:31:43.332Z,1.10
2022-11-20T07:34:17.851Z,1.30
2022-11-20T07:36:45.413Z,1.10
2022-11-20T07:39:12.918Z,1.10
2022-11-20T07:41:46.939Z,4.17
2022-11-20T07:44:17.339Z,1.30
2022-11-20T07:46:45.642Z,1.23
2022-11-20T07:49:20.217Z,1.13
2022-11-20T07:51:51.779Z,1.20
2022-11-20T07:54:19.649Z,1.10
2022-11-20T07:56:53.866Z,1.00
2022-11-20T07:59:21.596Z,0.83
2022-11-20T08:01:51.161Z,1.20
2022-11-20T08:04:24.953Z,1.03
2022-11-20T08:06:54.426Z,1.10
2022-11-20T08:09:32.923Z,1.80
2022-11-20T08:12:26.135Z,0.80
2022-11-20T08:15:00.137Z,0.93
2022-11-20T08:17:27.806Z,1.00
2022-11-20T08:19:55.242Z,1.10
2022-11-20T08:22:28.948Z,1.13
2022-11-20T08:24:56.406Z,1.10
2022-11-20T08:27:24.034Z,0.93
2022-11-20T08:29:57.932Z,1.10
2022-11-20T08:32:26.925Z,1.20
2022-11-20T08:34:54.491Z,0.90
2022-11-20T08:37:32.099Z,0.80
2022-11-20T08:39:59.941Z,1.20
2022-11-20T08:42:27.630Z,1.30
2022-11-20T08:45:01.939Z,1.20
2022-11-20T08:47:29.695Z,1.80
2022-11-20T08:49:57.498Z,1.80
2022-11-20T08:52:33.486Z,1.70
2022-11-20T08:55:03.545Z,2.03
2022-11-20T08:57:41.053Z,2.03
2022-11-20T09:00:12.823Z,3.40
2022-11-20T09:02:40.615Z,2.37
2022-11-20T09:05:14.983Z,3.20
2022-11-20T09:07:43.255Z,3.00
2022-11-20T09:10:23.581Z,3.20
2022-11-20T09:12:59.011Z,3.10
2022-11-20T09:15:27.171Z,3.70
2022-11-20T09:17:56.430Z,3.40
2022-11-20T09:20:30.984Z,3.40
2022-11-20T09:22:59.196Z,3.20
2022-11-20T09:25:26.833Z,3.40
2022-11-20T09:28:05.012Z,3.20
2022-11-20T09:30:33.050Z,3.60
2022-11-20T09:33:00.796Z,3.40
2022-11-20T09:35:35.047Z,3.43
2022-11-20T09:38:10.152Z,2.70
2022-11-20T09:40:48.071Z,2.50
2022-11-20T09:43:35.230Z,1.93
2022-11-20T09:46:15.950Z,1.70
2022-11-20T09:49:11.190Z,3.27
2022-11-20T09:52:07.224Z,2.10
2022-11-20T09:54:42.305Z,1.70
2022-11-20T09:57:37.119Z,1.30
2022-11-20T10:00:07.393Z,1.50
2022-11-20T10:02:48.058Z,1.40
2022-11-20T10:05:37.424Z,1.30
2022-11-20T10:08:27.188Z,1.80
2022-11-20T10:11:15.406Z,1.63
2022-11-20T10:14:40.426Z,2.13
2022-11-20T10:17:43.699Z,7.73
2022-11-20T10:20:51.247Z,4.40
2022-11-20T10:23:43.681Z,3.03
2022-11-20T10:26:46.061Z,3.50
2022-11-20T10:29:19.237Z,3.63
2022-11-20T10:32:04.969Z,4.00
2022-11-20T10:34:39.112Z,3.40
2022-11-20T10:37:25.953Z,3.67
2022-11-20T10:40:19.088Z,3.23
2022-11-20T10:42:58.975Z,3.47
2022-11-20T10:45:26.663Z,3.57
2022-11-20T10:48:14.987Z,2.73
2022-11-20T10:50:56.516Z,2.90
2022-11-20T10:53:37.091Z,2.60
2022-11-20T10:56:16.532Z,2.63
2022-11-20T10:59:23.254Z,2.27
2022-11-20T11:01:50.847Z,2.47
2022-11-20T11:04:52.019Z,2.10
2022-11-20T11:07:35.028Z,1.97
2022-11-20T11:10:10.158Z,2.10
2022-11-20T11:12:44.097Z,2.60
2022-11-20T11:15:49.000Z,2.00
2022-11-20T11:22:06.047Z,1.87
2022-11-20T11:24:42.101Z,1.77
2022-11-20T11:27:25.178Z,1.70
2022-11-20T11:30:12.158Z,2.10
2022-11-20T11:32:53.105Z,1.80
2022-11-20T11:35:24.794Z,1.30
2022-11-20T11:38:01.973Z,1.30
2022-11-20T11:40:32.665Z,1.30
2022-11-20T11:43:09.974Z,1.20
2022-11-20T11:45:38.148Z,1.40
2022-11-20T11:48:09.529Z,1.40
2022-11-20T11:50:44.028Z,1.20
2022-11-20T11:53:32.104Z,1.23
2022-11-20T11:56:17.063Z,1.40
2022-11-20T11:58:51.214Z,1.40
2022-11-20T12:01:49.989Z,1.40
2022-11-20T12:04:32.786Z,1.40
2022-11-20T12:07:39.263Z,1.20
2022-11-20T12:10:04.369Z,1.33
2022-11-20T12:12:50.109Z,1.27
2022-11-20T12:15:37.156Z,1.50
2022-11-20T12:18:22.125Z,1.20
2022-11-20T12:21:15.348Z,1.13
2022-11-20T12:24:11.460Z,1.35
2022-11-20T12:26:45.123Z,1.10
2022-11-20T12:29:44.110Z,1.53
2022-11-20T12:32:41.141Z,1.27
2022-11-20T12:35:37.073Z,1.03
2022-11-20T12:38:24.322Z,1.03
2022-11-20T12:41:20.458Z,1.37
2022-11-20T12:44:27.784Z,1.20
2022-11-20T12:47:30.023Z,1.20
2022-11-20T12:50:13.366Z,1.30
2022-11-20T12:52:56.077Z,1.47
2022-11-20T12:55:30.603Z,1.30
2022-11-20T12:58:28.133Z,1.07
2022-11-20T13:01:41.084Z,1.20
2022-11-20T13:04:33.980Z,1.17
2022-11-20T13:07:06.798Z,1.23
2022-11-20T13:09:44.044Z,1.30
2022-11-20T13:12:41.135Z,1.13
2022-11-20T13:15:24.253Z,1.27
2022-11-20T13:18:00.372Z,1.20
2022-11-20T13:20:35.191Z,1.10
2022-11-20T13:23:02.870Z,1.30
2022-11-20T13:25:46.187Z,1.17
2022-11-20T13:28:13.678Z,1.37
2022-11-20T13:30:59.250Z,1.20
2022-11-20T13:33:35.991Z,1.20
2022-11-20T13:36:13.077Z,1.10
2022-11-20T13:38:48.085Z,1.73
2022-11-20T13:41:36.168Z,1.00
2022-11-20T13:44:36.959Z,0.97
2022-11-20T13:47:30.328Z,1.00
2022-11-20T13:50:03.923Z,0.90
2022-11-20T13:52:59.310Z,1.20
2022-11-20T13:55:46.606Z,0.80
2022-11-20T13:59:01.185Z,1.07
2022-11-20T14:01:36.035Z,1.10
2022-11-20T14:04:21.588Z,1.00
2022-11-20T14:06:50.696Z,1.17
2022-11-20T14:09:40.179Z,1.13
2022-11-20T14:12:32.223Z,1.30
2022-11-20T14:15:07.290Z,0.90
2022-11-20T14:17:40.164Z,1.10
2022-11-20T14:20:21.149Z,0.90
2022-11-20T14:22:52.295Z,1.20
2022-11-20T14:25:19.858Z,0.70
2022-11-20T14:28:01.112Z,1.10
2022-11-20T14:30:49.478Z,1.10
2022-11-20T14:33:24.265Z,1.17
2022-11-20T14:35:57.522Z,1.00
2022-11-20T14:38:37.337Z,1.10
2022-11-20T14:41:20.066Z,0.93
2022-11-20T14:44:05.175Z,1.10
2022-11-20T14:46:34.444Z,1.03
2022-11-20T14:49:04.437Z,0.60
2022-11-20T14:51:49.584Z,0.90
2022-11-20T14:54:19.880Z,0.97
2022-11-20T14:57:08.259Z,1.10
2022-11-20T14:59:36.314Z,1.00
2022-11-20T15:02:16.143Z,1.27
2022-11-20T15:04:51.173Z,0.63
2022-11-20T15:07:43.211Z,0.93
2022-11-20T15:10:13.111Z,1.00
2022-11-20T15:13:21.489Z,1.20
2022-11-20T15:15:57.420Z,1.17
2022-11-20T15:18:44.402Z,0.80
2022-11-20T15:21:18.694Z,0.90
2022-11-20T15:23:53.453Z,0.93
2022-11-20T15:26:28.479Z,1.10
2022-11-20T15:29:03.237Z,1.00
2022-11-20T15:31:31.134Z,1.07
2022-11-20T15:33:59.086Z,1.10
2022-11-20T15:36:33.401Z,1.20
2022-11-20T15:39:00.859Z,1.20
2022-11-20T15:41:28.693Z,1.00
2022-11-20T15:44:03.363Z,1.10
2022-11-20T15:46:39.296Z,1.10
2022-11-20T15:49:19.190Z,1.20
2022-11-20T15:51:49.962Z,1.37
2022-11-20T15:54:29.115Z,1.20
2022-11-20T15:56:56.664Z,1.20
2022-11-20T15:59:24.224Z,1.17
2022-11-20T16:01:58.083Z,1.40
2022-11-20T16:04:26.257Z,2.33
2022-11-20T16:06:53.982Z,1.40
2022-11-20T16:09:28.211Z,1.10
2022-11-20T16:12:45.180Z,1.50
2022-11-20T16:15:44.061Z,1.20
2022-11-20T16:18:14.392Z,1.40
2022-11-20T16:20:42.062Z,1.33
2022-11-20T16:23:16.062Z,1.30
2022-11-20T16:25:44.656Z,1.30
2022-11-20T16:28:18.415Z,1.53
2022-11-20T16:30:53.115Z,1.27
2022-11-20T16:33:20.611Z,1.50
2022-11-20T16:35:48.153Z,1.23
2022-11-20T16:38:22.450Z,1.50
2022-11-20T16:40:49.993Z,0.97
2022-11-20T16:43:17.626Z,1.47
2022-11-20T16:45:52.219Z,1.40
2022-11-20T16:48:20.090Z,1.23
2022-11-20T16:50:59.116Z,1.30
2022-11-20T16:53:26.703Z,1.27
2022-11-20T16:55:54.133Z,1.37
2022-11-20T16:58:31.116Z,1.53
2022-11-20T17:01:05.297Z,2.13
2022-11-20T17:03:39.365Z,1.30
2022-11-20T17:06:15.598Z,1.60
2022-11-20T17:08:50.553Z,1.60
2022-11-20T17:11:20.268Z,1.77
2022-11-20T17:14:02.176Z,1.90
2022-11-20T17:16:30.093Z,1.50
2022-11-20T17:19:02.914Z,1.80
2022-11-20T17:21:38.122Z,1.53
2022-11-20T17:24:08.491Z,1.60
2022-11-20T17:26:37.470Z,2.10
2022-11-20T17:29:14.109Z,1.57
2022-11-20T17:31:42.417Z,1.60
2022-11-20T17:34:20.096Z,1.70
2022-11-20T17:36:47.659Z,1.57
2022-11-20T17:39:16.883Z,1.60
2022-11-20T17:42:12.092Z,1.70
2022-11-20T17:44:41.837Z,1.33
2022-11-20T17:47:10.480Z,1.70
2022-11-20T17:49:44.131Z,1.50
2022-11-20T17:52:11.625Z,1.30
2022-11-20T17:54:39.113Z,1.50
2022-11-20T17:57:34.081Z,1.70
2022-11-20T18:00:02.371Z,1.60
2022-11-20T18:02:30.992Z,1.20
2022-11-20T18:05:07.486Z,1.60
2022-11-20T18:07:41.338Z,1.23
2022-11-20T18:10:16.479Z,1.30
2022-11-20T18:13:04.476Z,1.37
2022-11-20T18:15:38.462Z,1.30
2022-11-20T18:18:06.077Z,1.20
2022-11-20T18:20:39.390Z,0.97
2022-11-20T18:23:14.523Z,1.23
2022-11-20T18:25:44.649Z,1.03
2022-11-20T18:28:12.115Z,0.97
2022-11-20T18:30:47.099Z,1.10
2022-11-20T18:33:14.527Z,1.00
2022-11-20T18:35:43.507Z,0.90
2022-11-20T18:38:17.648Z,1.00
2022-11-20T18:40:45.272Z,1.07
2022-11-20T18:43:38.850Z,1.10
2022-11-20T18:46:06.497Z,1.20
2022-11-20T18:48:35.348Z,1.00
2022-11-20T18:51:18.704Z,1.17
2022-11-20T18:53:50.162Z,0.97
2022-11-20T18:56:17.939Z,0.90
2022-11-20T18:58:51.596Z,1.00
2022-11-20T19:01:21.045Z,1.07
2022-11-20T19:03:48.622Z,0.90
2022-11-20T19:06:23.990Z,0.70
2022-11-20T19:08:52.186Z,0.70
2022-11-20T19:11:21.630Z,0.90
2022-11-20T19:13:55.936Z,0.90
2022-11-20T19:16:30.392Z,0.80
2022-11-20T19:19:08.018Z,1.00
2022-11-20T19:21:35.740Z,0.60
2022-11-20T19:24:04.424Z,0.80
2022-11-20T19:26:43.631Z,0.67
2022-11-20T19:29:17.850Z,0.70
2022-11-20T19:31:53.733Z,0.80
2022-11-20T19:34:21.780Z,0.80
2022-11-20T19:36:49.776Z,0.90
2022-11-20T19:39:25.025Z,0.43
2022-11-20T19:41:56.190Z,0.60
2022-11-20T19:44:24.234Z,0.57
2022-11-20T19:46:59.595Z,0.63
2022-11-20T19:49:27.121Z,1.63
2022-11-20T19:51:54.966Z,0.63
2022-11-20T19:54:29.873Z,2.40
2022-11-20T19:56:57.998Z,2.50
2022-11-20T19:59:27.390Z,3.47
2022-11-20T20:02:01.725Z,3.47
2022-11-20T20:04:30.885Z,1.10
2022-11-20T20:07:00.929Z,2.87
2022-11-20T20:09:36.878Z,1.70
2022-11-20T20:12:04.902Z,0.70
2022-11-20T20:14:45.925Z,0.50
2022-11-20T20:17:13.782Z,0.30
2022-11-20T20:19:41.356Z,0.40
2022-11-20T20:22:15.762Z,0.40
2022-11-20T20:24:43.487Z,0.40
2022-11-20T20:27:11.521Z,2.03
2022-11-20T20:29:49.104Z,1.50
2022-11-20T20:32:17.496Z,0.40
2022-11-20T20:34:45.930Z,1.90
2022-11-20T20:37:21.153Z,1.07
2022-11-20T20:39:49.620Z,1.20
2022-11-20T20:42:17.492Z,0.70
2022-11-20T20:45:10.099Z,0.30
2022-11-20T20:47:42.406Z,0.40
2022-11-20T20:50:21.750Z,14.33
2022-11-20T20:52:50.069Z,1.20
2022-11-20T20:55:17.925Z,1.73
2022-11-20T20:57:51.760Z,0.90
2022-11-20T21:00:19.602Z,1.10
2022-11-20T21:02:47.142Z,1.10
2022-11-20T21:05:21.717Z,0.90
2022-11-20T21:08:07.594Z,1.10
2022-11-20T21:10:41.679Z,1.40
2022-11-20T21:13:29.683Z,1.07
2022-11-20T21:16:03.743Z,1.30
2022-11-20T21:18:33.114Z,1.23
2022-11-20T21:21:30.154Z,1.20
2022-11-20T21:23:57.812Z,1.40
2022-11-20T21:26:25.588Z,1.30
2022-11-20T21:28:59.978Z,2.00
2022-11-20T21:31:30.222Z,1.30
2022-11-20T21:33:58.881Z,1.57
2022-11-20T21:36:35.704Z,1.53
2022-11-20T21:39:03.641Z,9.60
2022-11-20T21:41:31.913Z,1.30
2022-11-20T21:46:55.137Z,1.30
2022-11-20T21:49:29.638Z,1.30
2022-11-20T21:51:57.237Z,1.27
2022-11-20T21:54:37.660Z,0.97
2022-11-20T21:57:05.088Z,1.13
2022-11-20T21:59:32.703Z,1.53
2022-11-20T22:02:06.704Z,0.90
2022-11-20T22:04:34.203Z,1.30
2022-11-20T22:07:01.690Z,1.00
2022-11-20T22:09:35.597Z,1.10
2022-11-20T22:12:03.140Z,0.60
2022-11-20T22:14:52.690Z,0.70
2022-11-20T22:17:40.178Z,0.40
2022-11-20T22:20:15.667Z,0.43
2022-11-20T22:22:43.201Z,0.73
2022-11-20T22:25:10.740Z,0.50
2022-11-20T22:27:44.626Z,0.70
2022-11-20T22:30:12.770Z,0.40
2022-11-20T22:32:40.419Z,0.33
2022-11-20T22:35:21.666Z,0.70
2022-11-20T22:37:55.213Z,0.70
2022-11-20T22:40:29.897Z,0.80
2022-11-20T22:42:57.413Z,0.90
2022-11-20T22:45:24.829Z,1.00
2022-11-20T22:47:58.672Z,0.80
2022-11-20T22:50:26.225Z,1.20
2022-11-20T22:52:54.201Z,1.20
2022-11-20T22:55:28.620Z,1.40
2022-11-20T22:57:56.620Z,1.27
2022-11-20T23:00:24.035Z,1.20
2022-11-20T23:02:57.758Z,1.23
2022-11-20T23:05:25.336Z,1.50
2022-11-20T23:07:52.909Z,1.20
2022-11-20T23:10:27.888Z,1.30
2022-11-20T23:12:55.559Z,1.30
2022-11-20T23:15:36.695Z,1.37
2022-11-20T23:18:04.278Z,2.77
2022-11-20T23:20:44.663Z,1.50
2022-11-20T23:23:12.229Z,1.43
2022-11-20T23:25:39.817Z,1.40
2022-11-20T23:28:13.689Z,1.33
2022-11-20T23:30:42.025Z,1.60
2022-11-20T23:33:09.598Z,1.00
2022-11-20T23:35:46.721Z,0.83
2022-11-20T23:38:14.487Z,0.77
2022-11-20T23:40:46.255Z,0.70
2022-11-20T23:43:23.787Z,0.67
2022-11-20T23:45:54.304Z,0.70
2022-11-20T23:48:30.771Z,1.00
2022-11-20T23:50:58.799Z,0.47
2022-11-20T23:53:27.253Z,0.90
2022-11-20T23:56:03.763Z,0.73
2022-11-20T23:58:36.347Z,0.90
